sensor_id;sensor_type;location;lat;lon;timestamp;P1;durP1;ratioP1;P2;durP2;ratioP2
66927;SDS011;59882;45.624;11.698;2022-12-29T00:01:47;48.60;;;30.33;;
66927;SDS011;59882;45.624;11.698;2022-12-29T00:04:13;46.40;;;30.93;;
66927;SDS011;59882;45.624;11.698;2022-12-29T00:06:40;52.05;;;30.63;;
66927;SDS011;59882;45.624;11.698;2022-12-29T00:09:06;56.25;;;30.33;;
66927;SDS011;59882;45.624;11.698;2022-12-29T00:11:32;48.92;;;30.25;;
66927;SDS011;59882;45.624;11.698;2022-12-29T00:13:58;54.47;;;31.07;;
66927;SDS011;59882;45.624;11.698;2022-12-29T00:16:43;51.42;;;29.20;;
66927;SDS011;59882;45.624;11.698;2022-12-29T00:19:11;50.28;;;29.42;;
66927;SDS011;59882;45.624;11.698;2022-12-29T00:21:56;52.78;;;29.58;;
66927;SDS011;59882;45.624;11.698;2022-12-29T00:24:41;42.95;;;28.65;;
66927;SDS011;59882;45.624;11.698;2022-12-29T00:27:29;44.47;;;27.53;;
66927;SDS011;59882;45.624;11.698;2022-12-29T00:30:15;43.70;;;27.40;;
66927;SDS011;59882;45.624;11.698;2022-12-29T00:33:07;45.72;;;26.98;;
66927;SDS011;59882;45.624;11.698;2022-12-29T00:36:00;37.90;;;26.10;;
66927;SDS011;59882;45.624;11.698;2022-12-29T00:39:05;44.92;;;28.13;;
66927;SDS011;59882;45.624;11.698;2022-12-29T00:42:02;44.57;;;27.87;;
66927;SDS011;59882;45.624;11.698;2022-12-29T00:45:03;47.08;;;27.25;;
66927;SDS011;59882;45.624;11.698;2022-12-29T00:47:29;41.83;;;27.70;;
66927;SDS011;59882;45.624;11.698;2022-12-29T00:49:54;44.47;;;28.03;;
66927;SDS011;59882;45.624;11.698;2022-12-29T00:52:21;45.05;;;29.02;;
66927;SDS011;59882;45.624;11.698;2022-12-29T00:54:46;46.28;;;29.45;;
66927;SDS011;59882;45.624;11.698;2022-12-29T00:57:12;49.33;;;30.40;;
66927;SDS011;59882;45.624;11.698;2022-12-29T00:59:38;49.67;;;31.17;;
66927;SDS011;59882;45.624;11.698;2022-12-29T01:02:06;50.87;;;31.17;;
66927;SDS011;59882;45.624;11.698;2022-12-29T01:04:33;50.90;;;31.08;;
66927;SDS011;59882;45.624;11.698;2022-12-29T01:06:58;50.13;;;31.83;;
66927;SDS011;59882;45.624;11.698;2022-12-29T01:09:24;47.43;;;30.03;;
66927;SDS011;59882;45.624;11.698;2022-12-29T01:12:09;49.22;;;29.38;;
66927;SDS011;59882;45.624;11.698;2022-12-29T01:14:35;47.40;;;30.25;;
66927;SDS011;59882;45.624;11.698;2022-12-29T01:17:01;50.47;;;31.00;;
66927;SDS011;59882;45.624;11.698;2022-12-29T01:19:27;47.07;;;28.40;;
66927;SDS011;59882;45.624;11.698;2022-12-29T01:21:53;52.92;;;31.27;;
66927;SDS011;59882;45.624;11.698;2022-12-29T01:24:19;51.07;;;30.77;;
66927;SDS011;59882;45.624;11.698;2022-12-29T01:26:45;51.28;;;32.28;;
66927;SDS011;59882;45.624;11.698;2022-12-29T01:29:12;49.20;;;31.10;;
66927;SDS011;59882;45.624;11.698;2022-12-29T01:31:38;50.92;;;31.42;;
66927;SDS011;59882;45.624;11.698;2022-12-29T01:34:04;48.47;;;30.40;;
66927;SDS011;59882;45.624;11.698;2022-12-29T01:36:30;50.30;;;31.38;;
66927;SDS011;59882;45.624;11.698;2022-12-29T01:38:56;51.47;;;30.20;;
66927;SDS011;59882;45.624;11.698;2022-12-29T01:41:22;49.73;;;29.07;;
66927;SDS011;59882;45.624;11.698;2022-12-29T01:43:49;52.17;;;33.53;;
66927;SDS011;59882;45.624;11.698;2022-12-29T01:46:23;55.83;;;32.22;;
66927;SDS011;59882;45.624;11.698;2022-12-29T01:48:52;52.70;;;30.25;;
66927;SDS011;59882;45.624;11.698;2022-12-29T01:51:24;53.72;;;31.30;;
66927;SDS011;59882;45.624;11.698;2022-12-29T01:53:53;53.03;;;30.83;;
66927;SDS011;59882;45.624;11.698;2022-12-29T01:56:22;55.40;;;32.53;;
66927;SDS011;59882;45.624;11.698;2022-12-29T01:58:49;56.10;;;32.05;;
66927;SDS011;59882;45.624;11.698;2022-12-29T02:01:20;49.05;;;31.25;;
66927;SDS011;59882;45.624;11.698;2022-12-29T02:03:47;50.87;;;31.53;;
66927;SDS011;59882;45.624;11.698;2022-12-29T02:08:40;49.95;;;30.70;;
66927;SDS011;59882;45.624;11.698;2022-12-29T02:11:06;51.90;;;31.20;;
66927;SDS011;59882;45.624;11.698;2022-12-29T02:13:32;47.78;;;31.33;;
66927;SDS011;59882;45.624;11.698;2022-12-29T02:35:36;42.97;;;28.00;;
66927;SDS011;59882;45.624;11.698;2022-12-29T02:46:43;45.80;;;29.67;;
66927;SDS011;59882;45.624;11.698;2022-12-29T02:49:15;41.05;;;27.23;;
66927;SDS011;59882;45.624;11.698;2022-12-29T02:51:55;43.60;;;27.70;;
66927;SDS011;59882;45.624;11.698;2022-12-29T02:54:29;40.42;;;26.20;;
66927;SDS011;59882;45.624;11.698;2022-12-29T02:57:11;44.13;;;27.50;;
66927;SDS011;59882;45.624;11.698;2022-12-29T02:59:39;45.50;;;28.58;;
66927;SDS011;59882;45.624;11.698;2022-12-29T03:10:07;43.92;;;28.65;;
66927;SDS011;59882;45.624;11.698;2022-12-29T03:13:01;49.73;;;28.97;;
66927;SDS011;59882;45.624;11.698;2022-12-29T03:19:04;47.70;;;29.23;;
66927;SDS011;59882;45.624;11.698;2022-12-29T03:21:46;41.60;;;26.67;;
66927;SDS011;59882;45.624;11.698;2022-12-29T03:24:36;48.55;;;27.75;;
66927;SDS011;59882;45.624;11.698;2022-12-29T03:27:06;45.83;;;28.27;;
66927;SDS011;59882;45.624;11.698;2022-12-29T03:29:39;48.25;;;29.50;;
66927;SDS011;59882;45.624;11.698;2022-12-29T03:32:10;44.13;;;27.20;;
66927;SDS011;59882;45.624;11.698;2022-12-29T03:34:38;41.92;;;26.77;;
66927;SDS011;59882;45.624;11.698;2022-12-29T03:37:05;42.55;;;27.10;;
66927;SDS011;59882;45.624;11.698;2022-12-29T03:39:36;42.67;;;26.77;;
66927;SDS011;59882;45.624;11.698;2022-12-29T03:42:15;42.65;;;27.88;;
66927;SDS011;59882;45.624;11.698;2022-12-29T03:44:44;41.78;;;26.60;;
66927;SDS011;59882;45.624;11.698;2022-12-29T03:47:11;40.85;;;26.02;;
66927;SDS011;59882;45.624;11.698;2022-12-29T03:49:37;43.03;;;27.20;;
66927;SDS011;59882;45.624;11.698;2022-12-29T03:52:03;41.47;;;26.63;;
66927;SDS011;59882;45.624;11.698;2022-12-29T03:54:30;41.85;;;25.88;;
66927;SDS011;59882;45.624;11.698;2022-12-29T03:56:56;41.95;;;24.65;;
66927;SDS011;59882;45.624;11.698;2022-12-29T03:59:21;40.17;;;24.20;;
66927;SDS011;59882;45.624;11.698;2022-12-29T04:01:47;40.00;;;23.75;;
66927;SDS011;59882;45.624;11.698;2022-12-29T04:04:13;40.53;;;25.17;;
66927;SDS011;59882;45.624;11.698;2022-12-29T04:06:38;38.13;;;24.77;;
66927;SDS011;59882;45.624;11.698;2022-12-29T04:09:04;39.17;;;25.70;;
66927;SDS011;59882;45.624;11.698;2022-12-29T04:11:31;42.88;;;26.63;;
66927;SDS011;59882;45.624;11.698;2022-12-29T04:13:56;42.08;;;25.65;;
66927;SDS011;59882;45.624;11.698;2022-12-29T04:16:22;39.90;;;25.33;;
66927;SDS011;59882;45.624;11.698;2022-12-29T04:18:47;43.93;;;25.73;;
66927;SDS011;59882;45.624;11.698;2022-12-29T04:21:13;40.92;;;26.73;;
66927;SDS011;59882;45.624;11.698;2022-12-29T04:23:39;37.77;;;24.13;;
66927;SDS011;59882;45.624;11.698;2022-12-29T04:26:05;42.40;;;25.73;;
66927;SDS011;59882;45.624;11.698;2022-12-29T04:28:32;41.05;;;25.40;;
66927;SDS011;59882;45.624;11.698;2022-12-29T04:30:58;42.43;;;27.37;;
66927;SDS011;59882;45.624;11.698;2022-12-29T04:33:24;40.40;;;24.65;;
66927;SDS011;59882;45.624;11.698;2022-12-29T04:35:50;42.28;;;25.13;;
66927;SDS011;59882;45.624;11.698;2022-12-29T04:38:18;41.05;;;24.58;;
66927;SDS011;59882;45.624;11.698;2022-12-29T04:40:44;38.07;;;24.27;;
66927;SDS011;59882;45.624;11.698;2022-12-29T04:43:10;38.55;;;25.40;;
66927;SDS011;59882;45.624;11.698;2022-12-29T04:45:36;40.58;;;25.30;;
66927;SDS011;59882;45.624;11.698;2022-12-29T04:48:01;38.57;;;25.23;;
66927;SDS011;59882;45.624;11.698;2022-12-29T04:50:27;36.88;;;23.58;;
66927;SDS011;59882;45.624;11.698;2022-12-29T04:52:54;41.85;;;24.65;;
66927;SDS011;59882;45.624;11.698;2022-12-29T04:55:20;41.07;;;22.67;;
66927;SDS011;59882;45.624;11.698;2022-12-29T04:57:46;39.42;;;25.42;;
66927;SDS011;59882;45.624;11.698;2022-12-29T05:00:12;38.23;;;24.17;;
66927;SDS011;59882;45.624;11.698;2022-12-29T05:02:38;38.70;;;23.77;;
66927;SDS011;59882;45.624;11.698;2022-12-29T05:05:04;35.07;;;22.47;;
66927;SDS011;59882;45.624;11.698;2022-12-29T05:07:31;38.20;;;23.30;;
66927;SDS011;59882;45.624;11.698;2022-12-29T05:09:58;35.35;;;24.23;;
66927;SDS011;59882;45.624;11.698;2022-12-29T05:12:24;39.20;;;23.85;;
66927;SDS011;59882;45.624;11.698;2022-12-29T05:14:50;36.23;;;23.23;;
66927;SDS011;59882;45.624;11.698;2022-12-29T05:17:15;37.22;;;24.90;;
66927;SDS011;59882;45.624;11.698;2022-12-29T05:19:41;38.57;;;24.33;;
66927;SDS011;59882;45.624;11.698;2022-12-29T05:22:06;34.53;;;22.57;;
66927;SDS011;59882;45.624;11.698;2022-12-29T05:24:32;36.80;;;23.25;;
66927;SDS011;59882;45.624;11.698;2022-12-29T05:26:58;36.97;;;23.27;;
66927;SDS011;59882;45.624;11.698;2022-12-29T05:29:23;33.65;;;23.20;;
66927;SDS011;59882;45.624;11.698;2022-12-29T05:31:49;37.67;;;22.60;;
66927;SDS011;59882;45.624;11.698;2022-12-29T05:34:14;36.47;;;22.50;;
66927;SDS011;59882;45.624;11.698;2022-12-29T05:36:40;37.42;;;23.33;;
66927;SDS011;59882;45.624;11.698;2022-12-29T05:39:06;37.87;;;22.43;;
66927;SDS011;59882;45.624;11.698;2022-12-29T05:41:32;36.58;;;22.10;;
66927;SDS011;59882;45.624;11.698;2022-12-29T05:43:59;35.58;;;21.17;;
66927;SDS011;59882;45.624;11.698;2022-12-29T05:46:25;39.28;;;22.88;;
66927;SDS011;59882;45.624;11.698;2022-12-29T05:48:51;34.13;;;22.03;;
66927;SDS011;59882;45.624;11.698;2022-12-29T05:51:16;38.45;;;23.50;;
66927;SDS011;59882;45.624;11.698;2022-12-29T05:53:42;37.93;;;22.60;;
66927;SDS011;59882;45.624;11.698;2022-12-29T05:56:07;36.27;;;22.90;;
66927;SDS011;59882;45.624;11.698;2022-12-29T05:58:33;29.42;;;20.42;;
66927;SDS011;59882;45.624;11.698;2022-12-29T06:00:59;31.20;;;20.97;;
66927;SDS011;59882;45.624;11.698;2022-12-29T06:03:24;38.22;;;24.27;;
66927;SDS011;59882;45.624;11.698;2022-12-29T06:05:50;37.33;;;22.17;;
66927;SDS011;59882;45.624;11.698;2022-12-29T06:08:15;36.87;;;23.03;;
66927;SDS011;59882;45.624;11.698;2022-12-29T06:10:41;36.92;;;23.25;;
66927;SDS011;59882;45.624;11.698;2022-12-29T06:13:06;33.57;;;22.80;;
66927;SDS011;59882;45.624;11.698;2022-12-29T06:15:32;44.67;;;24.88;;
66927;SDS011;59882;45.624;11.698;2022-12-29T06:17:58;38.73;;;24.77;;
66927;SDS011;59882;45.624;11.698;2022-12-29T06:20:24;42.33;;;26.50;;
66927;SDS011;59882;45.624;11.698;2022-12-29T06:22:50;43.10;;;27.40;;
66927;SDS011;59882;45.624;11.698;2022-12-29T06:25:15;45.63;;;29.00;;
66927;SDS011;59882;45.624;11.698;2022-12-29T06:27:41;61.10;;;34.23;;
66927;SDS011;59882;45.624;11.698;2022-12-29T06:30:07;42.88;;;29.42;;
66927;SDS011;59882;45.624;11.698;2022-12-29T06:32:34;40.60;;;27.08;;
66927;SDS011;59882;45.624;11.698;2022-12-29T06:35:00;40.83;;;26.88;;
66927;SDS011;59882;45.624;11.698;2022-12-29T06:37:27;40.08;;;25.92;;
66927;SDS011;59882;45.624;11.698;2022-12-29T06:39:53;39.57;;;24.57;;
66927;SDS011;59882;45.624;11.698;2022-12-29T06:42:18;36.93;;;24.73;;
66927;SDS011;59882;45.624;11.698;2022-12-29T06:44:44;41.00;;;25.10;;
66927;SDS011;59882;45.624;11.698;2022-12-29T06:47:09;38.40;;;23.90;;
66927;SDS011;59882;45.624;11.698;2022-12-29T06:49:35;41.22;;;25.60;;
66927;SDS011;59882;45.624;11.698;2022-12-29T06:52:01;35.53;;;23.20;;
66927;SDS011;59882;45.624;11.698;2022-12-29T06:54:29;35.88;;;23.88;;
66927;SDS011;59882;45.624;11.698;2022-12-29T06:56:55;41.33;;;24.65;;
66927;SDS011;59882;45.624;11.698;2022-12-29T06:59:20;35.50;;;23.33;;
66927;SDS011;59882;45.624;11.698;2022-12-29T07:01:46;38.10;;;24.08;;
66927;SDS011;59882;45.624;11.698;2022-12-29T07:04:11;40.77;;;25.73;;
66927;SDS011;59882;45.624;11.698;2022-12-29T07:06:37;46.67;;;28.80;;
66927;SDS011;59882;45.624;11.698;2022-12-29T07:09:03;41.77;;;25.73;;
66927;SDS011;59882;45.624;11.698;2022-12-29T07:11:29;45.58;;;27.45;;
66927;SDS011;59882;45.624;11.698;2022-12-29T07:13:54;43.67;;;27.43;;
66927;SDS011;59882;45.624;11.698;2022-12-29T07:16:21;40.08;;;26.23;;
66927;SDS011;59882;45.624;11.698;2022-12-29T07:18:46;40.53;;;25.83;;
66927;SDS011;59882;45.624;11.698;2022-12-29T07:21:12;46.15;;;25.83;;
66927;SDS011;59882;45.624;11.698;2022-12-29T07:23:37;36.57;;;25.93;;
66927;SDS011;59882;45.624;11.698;2022-12-29T07:26:05;42.70;;;25.27;;
66927;SDS011;59882;45.624;11.698;2022-12-29T07:28:32;35.60;;;25.03;;
66927;SDS011;59882;45.624;11.698;2022-12-29T07:30:59;35.25;;;24.20;;
66927;SDS011;59882;45.624;11.698;2022-12-29T07:33:24;34.67;;;24.50;;
66927;SDS011;59882;45.624;11.698;2022-12-29T07:35:50;40.90;;;24.23;;
66927;SDS011;59882;45.624;11.698;2022-12-29T07:38:16;33.17;;;22.15;;
66927;SDS011;59882;45.624;11.698;2022-12-29T07:40:42;31.13;;;21.73;;
66927;SDS011;59882;45.624;11.698;2022-12-29T07:43:08;33.83;;;22.23;;
66927;SDS011;59882;45.624;11.698;2022-12-29T07:45:33;34.87;;;21.57;;
66927;SDS011;59882;45.624;11.698;2022-12-29T07:47:59;31.70;;;22.50;;
66927;SDS011;59882;45.624;11.698;2022-12-29T07:50:24;33.30;;;21.93;;
66927;SDS011;59882;45.624;11.698;2022-12-29T07:52:50;34.75;;;21.77;;
66927;SDS011;59882;45.624;11.698;2022-12-29T07:55:16;33.63;;;21.63;;
66927;SDS011;59882;45.624;11.698;2022-12-29T07:57:41;38.15;;;22.60;;
66927;SDS011;59882;45.624;11.698;2022-12-29T08:00:07;35.23;;;22.60;;
66927;SDS011;59882;45.624;11.698;2022-12-29T08:02:34;36.45;;;23.95;;
66927;SDS011;59882;45.624;11.698;2022-12-29T08:05:01;32.25;;;21.35;;
66927;SDS011;59882;45.624;11.698;2022-12-29T08:07:26;35.70;;;22.20;;
66927;SDS011;59882;45.624;11.698;2022-12-29T08:09:52;34.95;;;21.70;;
66927;SDS011;59882;45.624;11.698;2022-12-29T08:12:18;31.80;;;20.65;;
66927;SDS011;59882;45.624;11.698;2022-12-29T08:14:44;42.63;;;26.53;;
66927;SDS011;59882;45.624;11.698;2022-12-29T08:17:09;36.65;;;22.48;;
66927;SDS011;59882;45.624;11.698;2022-12-29T08:19:35;36.50;;;22.37;;
66927;SDS011;59882;45.624;11.698;2022-12-29T08:22:01;31.13;;;20.02;;
66927;SDS011;59882;45.624;11.698;2022-12-29T08:24:27;35.25;;;21.65;;
66927;SDS011;59882;45.624;11.698;2022-12-29T08:26:53;33.30;;;20.60;;
66927;SDS011;59882;45.624;11.698;2022-12-29T08:29:18;39.13;;;25.07;;
66927;SDS011;59882;45.624;11.698;2022-12-29T08:31:46;42.47;;;25.70;;
66927;SDS011;59882;45.624;11.698;2022-12-29T08:34:12;43.50;;;26.23;;
66927;SDS011;59882;45.624;11.698;2022-12-29T08:36:37;39.33;;;24.67;;
66927;SDS011;59882;45.624;11.698;2022-12-29T08:39:03;35.13;;;23.25;;
66927;SDS011;59882;45.624;11.698;2022-12-29T08:41:29;38.87;;;22.23;;
66927;SDS011;59882;45.624;11.698;2022-12-29T08:43:54;34.90;;;22.98;;
66927;SDS011;59882;45.624;11.698;2022-12-29T08:46:20;38.87;;;22.20;;
66927;SDS011;59882;45.624;11.698;2022-12-29T08:48:45;33.03;;;21.30;;
66927;SDS011;59882;45.624;11.698;2022-12-29T08:51:11;35.50;;;21.80;;
66927;SDS011;59882;45.624;11.698;2022-12-29T08:53:37;34.90;;;22.23;;
66927;SDS011;59882;45.624;11.698;2022-12-29T08:56:03;34.60;;;22.53;;
66927;SDS011;59882;45.624;11.698;2022-12-29T08:58:28;32.60;;;22.25;;
66927;SDS011;59882;45.624;11.698;2022-12-29T09:00:55;32.03;;;22.00;;
66927;SDS011;59882;45.624;11.698;2022-12-29T09:03:22;30.55;;;21.05;;
66927;SDS011;59882;45.624;11.698;2022-12-29T09:05:49;35.58;;;22.92;;
66927;SDS011;59882;45.624;11.698;2022-12-29T09:08:16;31.88;;;21.52;;
66927;SDS011;59882;45.624;11.698;2022-12-29T09:10:42;35.25;;;23.50;;
66927;SDS011;59882;45.624;11.698;2022-12-29T09:13:09;39.23;;;20.37;;
66927;SDS011;59882;45.624;11.698;2022-12-29T09:15:35;29.33;;;20.02;;
66927;SDS011;59882;45.624;11.698;2022-12-29T09:18:01;32.55;;;20.35;;
66927;SDS011;59882;45.624;11.698;2022-12-29T09:20:26;30.57;;;19.23;;
66927;SDS011;59882;45.624;11.698;2022-12-29T09:22:52;32.40;;;20.83;;
66927;SDS011;59882;45.624;11.698;2022-12-29T09:25:19;34.10;;;20.80;;
66927;SDS011;59882;45.624;11.698;2022-12-29T09:27:45;44.47;;;28.60;;
66927;SDS011;59882;45.624;11.698;2022-12-29T09:30:12;53.40;;;30.27;;
66927;SDS011;59882;45.624;11.698;2022-12-29T09:32:39;50.67;;;30.30;;
66927;SDS011;59882;45.624;11.698;2022-12-29T09:35:05;48.97;;;29.33;;
66927;SDS011;59882;45.624;11.698;2022-12-29T09:37:31;39.53;;;25.90;;
66927;SDS011;59882;45.624;11.698;2022-12-29T09:39:57;38.38;;;25.85;;
66927;SDS011;59882;45.624;11.698;2022-12-29T09:42:35;36.20;;;23.63;;
66927;SDS011;59882;45.624;11.698;2022-12-29T09:45:14;35.83;;;23.65;;
66927;SDS011;59882;45.624;11.698;2022-12-29T09:47:41;39.57;;;22.90;;
66927;SDS011;59882;45.624;11.698;2022-12-29T09:55:43;41.78;;;24.42;;
66927;SDS011;59882;45.624;11.698;2022-12-29T09:58:14;40.75;;;23.40;;
66927;SDS011;59882;45.624;11.698;2022-12-29T10:01:02;49.43;;;25.13;;
66927;SDS011;59882;45.624;11.698;2022-12-29T10:06:26;41.97;;;25.02;;
66927;SDS011;59882;45.624;11.698;2022-12-29T10:09:03;38.17;;;24.35;;
66927;SDS011;59882;45.624;11.698;2022-12-29T10:25:37;35.40;;;22.65;;
66927;SDS011;59882;45.624;11.698;2022-12-29T10:28:05;36.60;;;22.27;;
66927;SDS011;59882;45.624;11.698;2022-12-29T10:30:39;33.92;;;21.60;;
66927;SDS011;59882;45.624;11.698;2022-12-29T10:33:06;36.10;;;22.67;;
66927;SDS011;59882;45.624;11.698;2022-12-29T10:35:35;33.90;;;23.20;;
66927;SDS011;59882;45.624;11.698;2022-12-29T10:40:51;39.55;;;22.50;;
66927;SDS011;59882;45.624;11.698;2022-12-29T10:43:33;40.42;;;26.50;;
66927;SDS011;59882;45.624;11.698;2022-12-29T10:46:10;40.77;;;26.70;;
66927;SDS011;59882;45.624;11.698;2022-12-29T10:48:46;36.28;;;25.35;;
66927;SDS011;59882;45.624;11.698;2022-12-29T10:51:18;37.25;;;23.48;;
66927;SDS011;59882;45.624;11.698;2022-12-29T10:58:59;34.35;;;22.55;;
66927;SDS011;59882;45.624;11.698;2022-12-29T11:01:33;35.83;;;22.27;;
66927;SDS011;59882;45.624;11.698;2022-12-29T11:04:05;30.75;;;21.42;;
66927;SDS011;59882;45.624;11.698;2022-12-29T11:06:37;30.30;;;20.47;;
66927;SDS011;59882;45.624;11.698;2022-12-29T11:09:16;30.45;;;20.85;;
66927;SDS011;59882;45.624;11.698;2022-12-29T11:11:48;31.40;;;20.38;;
66927;SDS011;59882;45.624;11.698;2022-12-29T11:14:16;32.23;;;20.27;;
66927;SDS011;59882;45.624;11.698;2022-12-29T11:16:44;32.53;;;21.73;;
66927;SDS011;59882;45.624;11.698;2022-12-29T11:19:23;32.03;;;20.88;;
66927;SDS011;59882;45.624;11.698;2022-12-29T11:21:53;31.17;;;21.03;;
66927;SDS011;59882;45.624;11.698;2022-12-29T11:24:20;30.15;;;20.10;;
66927;SDS011;59882;45.624;11.698;2022-12-29T11:26:51;33.28;;;21.45;;
66927;SDS011;59882;45.624;11.698;2022-12-29T11:31:53;30.50;;;20.40;;
66927;SDS011;59882;45.624;11.698;2022-12-29T11:34:24;31.60;;;20.57;;
66927;SDS011;59882;45.624;11.698;2022-12-29T11:37:00;32.97;;;22.50;;
66927;SDS011;59882;45.624;11.698;2022-12-29T11:42:22;33.20;;;21.90;;
66927;SDS011;59882;45.624;11.698;2022-12-29T11:44:54;42.08;;;24.77;;
66927;SDS011;59882;45.624;11.698;2022-12-29T11:47:25;32.10;;;22.70;;
66927;SDS011;59882;45.624;11.698;2022-12-29T11:49:55;31.50;;;22.33;;
66927;SDS011;59882;45.624;11.698;2022-12-29T11:52:32;34.33;;;22.45;;
66927;SDS011;59882;45.624;11.698;2022-12-29T11:55:03;35.10;;;22.77;;
66927;SDS011;59882;45.624;11.698;2022-12-29T11:57:32;35.75;;;22.15;;
66927;SDS011;59882;45.624;11.698;2022-12-29T12:00:00;31.83;;;21.80;;
66927;SDS011;59882;45.624;11.698;2022-12-29T12:02:35;33.92;;;22.13;;
66927;SDS011;59882;45.624;11.698;2022-12-29T12:07:54;28.77;;;20.80;;
66927;SDS011;59882;45.624;11.698;2022-12-29T12:10:35;32.53;;;20.98;;
66927;SDS011;59882;45.624;11.698;2022-12-29T12:16:22;30.00;;;20.90;;
66927;SDS011;59882;45.624;11.698;2022-12-29T12:18:55;32.13;;;21.75;;
66927;SDS011;59882;45.624;11.698;2022-12-29T12:29:34;32.20;;;21.60;;
66927;SDS011;59882;45.624;11.698;2022-12-29T12:32:15;35.30;;;22.75;;
66927;SDS011;59882;45.624;11.698;2022-12-29T12:34:46;32.40;;;20.47;;
66927;SDS011;59882;45.624;11.698;2022-12-29T12:54:09;30.33;;;21.20;;
66927;SDS011;59882;45.624;11.698;2022-12-29T13:05:36;32.88;;;20.75;;
66927;SDS011;59882;45.624;11.698;2022-12-29T13:16:28;32.57;;;21.10;;
66927;SDS011;59882;45.624;11.698;2022-12-29T13:19:06;36.70;;;23.02;;
66927;SDS011;59882;45.624;11.698;2022-12-29T13:24:47;33.90;;;20.25;;
66927;SDS011;59882;45.624;11.698;2022-12-29T13:30:15;35.83;;;22.73;;
66927;SDS011;59882;45.624;11.698;2022-12-29T13:32:58;36.15;;;22.23;;
66927;SDS011;59882;45.624;11.698;2022-12-29T13:35:32;37.42;;;22.77;;
66927;SDS011;59882;45.624;11.698;2022-12-29T13:38:22;32.95;;;22.50;;
66927;SDS011;59882;45.624;11.698;2022-12-29T13:40:59;32.17;;;22.38;;
66927;SDS011;59882;45.624;11.698;2022-12-29T13:43:28;37.30;;;24.53;;
66927;SDS011;59882;45.624;11.698;2022-12-29T13:46:01;33.60;;;22.67;;
66927;SDS011;59882;45.624;11.698;2022-12-29T13:48:55;37.65;;;24.88;;
66927;SDS011;59882;45.624;11.698;2022-12-29T13:51:27;37.70;;;25.00;;
66927;SDS011;59882;45.624;11.698;2022-12-29T13:56:35;35.10;;;23.23;;
66927;SDS011;59882;45.624;11.698;2022-12-29T14:07:43;36.17;;;24.52;;
66927;SDS011;59882;45.624;11.698;2022-12-29T14:13:05;37.33;;;25.90;;
66927;SDS011;59882;45.624;11.698;2022-12-29T14:15:38;38.60;;;26.45;;
66927;SDS011;59882;45.624;11.698;2022-12-29T14:18:15;38.30;;;25.13;;
66927;SDS011;59882;45.624;11.698;2022-12-29T14:20:50;40.03;;;28.08;;
66927;SDS011;59882;45.624;11.698;2022-12-29T14:23:26;42.17;;;26.97;;
66927;SDS011;59882;45.624;11.698;2022-12-29T14:26:11;38.38;;;27.83;;
66927;SDS011;59882;45.624;11.698;2022-12-29T14:29:15;40.90;;;27.05;;
66927;SDS011;59882;45.624;11.698;2022-12-29T14:31:42;40.78;;;27.05;;
66927;SDS011;59882;45.624;11.698;2022-12-29T14:36:34;41.17;;;26.87;;
66927;SDS011;59882;45.624;11.698;2022-12-29T14:42:06;41.20;;;27.50;;
66927;SDS011;59882;45.624;11.698;2022-12-29T14:49:56;41.97;;;27.83;;
66927;SDS011;59882;45.624;11.698;2022-12-29T14:52:50;41.90;;;26.52;;
66927;SDS011;59882;45.624;11.698;2022-12-29T14:58:10;34.87;;;24.83;;
66927;SDS011;59882;45.624;11.698;2022-12-29T15:00:43;35.40;;;24.70;;
66927;SDS011;59882;45.624;11.698;2022-12-29T15:03:23;39.47;;;25.85;;
66927;SDS011;59882;45.624;11.698;2022-12-29T15:05:58;40.17;;;26.58;;
66927;SDS011;59882;45.624;11.698;2022-12-29T15:08:33;36.75;;;25.45;;
66927;SDS011;59882;45.624;11.698;2022-12-29T15:13:46;42.08;;;27.52;;
66927;SDS011;59882;45.624;11.698;2022-12-29T15:18:56;47.47;;;31.37;;
66927;SDS011;59882;45.624;11.698;2022-12-29T15:21:26;44.97;;;31.55;;
66927;SDS011;59882;45.624;11.698;2022-12-29T15:23:55;45.78;;;31.25;;
66927;SDS011;59882;45.624;11.698;2022-12-29T15:26:21;40.95;;;28.85;;
66927;SDS011;59882;45.624;11.698;2022-12-29T15:28:48;42.22;;;29.02;;
66927;SDS011;59882;45.624;11.698;2022-12-29T15:31:19;42.73;;;29.17;;
66927;SDS011;59882;45.624;11.698;2022-12-29T15:33:54;41.30;;;28.02;;
66927;SDS011;59882;45.624;11.698;2022-12-29T15:36:27;44.13;;;30.70;;
66927;SDS011;59882;45.624;11.698;2022-12-29T15:38:54;43.65;;;28.15;;
66927;SDS011;59882;45.624;11.698;2022-12-29T15:43:53;42.47;;;29.23;;
66927;SDS011;59882;45.624;11.698;2022-12-29T15:46:21;37.97;;;27.98;;
66927;SDS011;59882;45.624;11.698;2022-12-29T15:48:46;43.58;;;30.30;;
66927;SDS011;59882;45.624;11.698;2022-12-29T15:51:16;43.33;;;30.07;;
66927;SDS011;59882;45.624;11.698;2022-12-29T15:53:50;52.83;;;30.63;;
66927;SDS011;59882;45.624;11.698;2022-12-29T15:56:16;46.15;;;30.75;;
66927;SDS011;59882;45.624;11.698;2022-12-29T15:58:44;50.55;;;33.13;;
66927;SDS011;59882;45.624;11.698;2022-12-29T16:01:31;47.43;;;30.40;;
66927;SDS011;59882;45.624;11.698;2022-12-29T16:04:03;42.42;;;30.10;;
66927;SDS011;59882;45.624;11.698;2022-12-29T16:06:38;43.70;;;30.10;;
66927;SDS011;59882;45.624;11.698;2022-12-29T16:09:16;39.50;;;29.63;;
66927;SDS011;59882;45.624;11.698;2022-12-29T16:11:54;42.63;;;30.70;;
66927;SDS011;59882;45.624;11.698;2022-12-29T16:15:24;44.97;;;30.63;;
66927;SDS011;59882;45.624;11.698;2022-12-29T16:17:23;44.55;;;31.05;;
66927;SDS011;59882;45.624;11.698;2022-12-29T16:19:56;70.22;;;41.30;;
66927;SDS011;59882;45.624;11.698;2022-12-29T16:22:31;86.32;;;50.17;;
66927;SDS011;59882;45.624;11.698;2022-12-29T16:25:00;49.53;;;33.90;;
66927;SDS011;59882;45.624;11.698;2022-12-29T16:27:32;44.53;;;30.30;;
66927;SDS011;59882;45.624;11.698;2022-12-29T16:30:03;41.00;;;29.40;;
66927;SDS011;59882;45.624;11.698;2022-12-29T16:32:31;47.20;;;30.15;;
66927;SDS011;59882;45.624;11.698;2022-12-29T16:35:16;39.67;;;29.25;;
66927;SDS011;59882;45.624;11.698;2022-12-29T16:37:48;44.22;;;29.60;;
66927;SDS011;59882;45.624;11.698;2022-12-29T16:40:32;47.27;;;30.77;;
66927;SDS011;59882;45.624;11.698;2022-12-29T16:43:01;43.80;;;31.45;;
66927;SDS011;59882;45.624;11.698;2022-12-29T16:46:06;45.85;;;32.55;;
66927;SDS011;59882;45.624;11.698;2022-12-29T16:51:13;50.80;;;34.55;;
66927;SDS011;59882;45.624;11.698;2022-12-29T16:53:41;51.13;;;33.37;;
66927;SDS011;59882;45.624;11.698;2022-12-29T16:56:34;54.80;;;36.35;;
66927;SDS011;59882;45.624;11.698;2022-12-29T16:59:03;54.78;;;34.83;;
66927;SDS011;59882;45.624;11.698;2022-12-29T17:01:34;46.47;;;33.53;;
66927;SDS011;59882;45.624;11.698;2022-12-29T17:04:08;59.65;;;35.03;;
66927;SDS011;59882;45.624;11.698;2022-12-29T17:06:35;65.77;;;39.03;;
66927;SDS011;59882;45.624;11.698;2022-12-29T17:09:00;57.03;;;38.53;;
66927;SDS011;59882;45.624;11.698;2022-12-29T17:11:27;62.87;;;38.73;;
66927;SDS011;59882;45.624;11.698;2022-12-29T17:14:26;56.75;;;38.92;;
66927;SDS011;59882;45.624;11.698;2022-12-29T17:17:17;60.95;;;42.00;;